sensor_id;sensor_type;location;lat;lon;timestamp;P1;durP1;ratioP1;P2;durP2;ratioP2
10088;SDS011;51898;49.864;8.550;2023-12-20T00:02:30;5.53;;;4.00;;
10088;SDS011;51898;49.864;8.550;2023-12-20T00:05:32;5.77;;;4.57;;
10088;SDS011;51898;49.864;8.550;2023-12-20T00:08:34;6.23;;;4.10;;
10088;SDS011;51898;49.864;8.550;2023-12-20T00:11:36;4.97;;;4.00;;
10088;SDS011;51898;49.864;8.550;2023-12-20T00:14:38;4.80;;;3.60;;
10088;SDS011;51898;49.864;8.550;2023-12-20T00:17:39;5.33;;;4.13;;
10088;SDS011;51898;49.864;8.550;2023-12-20T00:20:41;5.27;;;3.67;;
10088;SDS011;51898;49.864;8.550;2023-12-20T00:23:43;4.63;;;3.43;;
10088;SDS011;51898;49.864;8.550;2023-12-20T00:26:45;6.17;;;4.07;;
10088;SDS011;51898;49.864;8.550;2023-12-20T00:29:46;5.67;;;3.73;;
10088;SDS011;51898;49.864;8.550;2023-12-20T00:32:51;4.00;;;3.23;;
10088;SDS011;51898;49.864;8.550;2023-12-20T00:35:53;5.33;;;3.30;;
10088;SDS011;51898;49.864;8.550;2023-12-20T00:38:54;4.57;;;3.37;;
10088;SDS011;51898;49.864;8.550;2023-12-20T00:41:56;3.07;;;2.60;;
10088;SDS011;51898;49.864;8.550;2023-12-20T00:44:58;4.47;;;3.07;;
10088;SDS011;51898;49.864;8.550;2023-12-20T00:48:00;3.17;;;2.87;;
10088;SDS011;51898;49.864;8.550;2023-12-20T00:51:02;3.17;;;2.73;;
10088;SDS011;51898;49.864;8.550;2023-12-20T00:54:04;2.57;;;2.33;;
10088;SDS011;51898;49.864;8.550;2023-12-20T00:57:06;3.27;;;2.43;;
10088;SDS011;51898;49.864;8.550;2023-12-20T01:00:08;3.33;;;2.70;;
10088;SDS011;51898;49.864;8.550;2023-12-20T01:03:14;3.80;;;2.57;;
10088;SDS011;51898;49.864;8.550;2023-12-20T01:06:16;3.50;;;3.10;;
10088;SDS011;51898;49.864;8.550;2023-12-20T01:09:18;4.67;;;3.10;;
10088;SDS011;51898;49.864;8.550;2023-12-20T01:12:20;3.23;;;2.63;;
10088;SDS011;51898;49.864;8.550;2023-12-20T01:15:21;3.70;;;2.67;;
10088;SDS011;51898;49.864;8.550;2023-12-20T01:18:24;4.03;;;2.93;;
10088;SDS011;51898;49.864;8.550;2023-12-20T01:21:26;4.90;;;3.50;;
10088;SDS011;51898;49.864;8.550;2023-12-20T01:24:27;2.60;;;2.40;;
10088;SDS011;51898;49.864;8.550;2023-12-20T01:27:29;3.40;;;2.90;;
10088;SDS011;51898;49.864;8.550;2023-12-20T01:30:32;4.30;;;2.80;;
10088;SDS011;51898;49.864;8.550;2023-12-20T01:33:34;4.37;;;3.30;;
10088;SDS011;51898;49.864;8.550;2023-12-20T01:36:35;4.33;;;3.20;;
10088;SDS011;51898;49.864;8.550;2023-12-20T01:39:37;3.47;;;2.80;;
10088;SDS011;51898;49.864;8.550;2023-12-20T01:42:39;4.13;;;2.20;;
10088;SDS011;51898;49.864;8.550;2023-12-20T01:45:41;3.07;;;2.50;;
10088;SDS011;51898;49.864;8.550;2023-12-20T01:48:42;3.53;;;2.40;;
10088;SDS011;51898;49.864;8.550;2023-12-20T01:51:44;3.70;;;2.80;;
10088;SDS011;51898;49.864;8.550;2023-12-20T01:54:46;2.67;;;2.40;;
10088;SDS011;51898;49.864;8.550;2023-12-20T01:57:49;2.80;;;2.30;;
10088;SDS011;51898;49.864;8.550;2023-12-20T02:00:51;2.80;;;2.37;;
10088;SDS011;51898;49.864;8.550;2023-12-20T02:03:53;3.83;;;2.60;;
10088;SDS011;51898;49.864;8.550;2023-12-20T02:06:57;3.40;;;2.40;;
10088;SDS011;51898;49.864;8.550;2023-12-20T02:10:00;2.73;;;2.30;;
10088;SDS011;51898;49.864;8.550;2023-12-20T02:13:04;3.03;;;2.70;;
10088;SDS011;51898;49.864;8.550;2023-12-20T02:16:06;2.63;;;2.33;;
10088;SDS011;51898;49.864;8.550;2023-12-20T02:19:13;4.30;;;3.10;;
10088;SDS011;51898;49.864;8.550;2023-12-20T02:22:17;3.67;;;2.33;;
10088;SDS011;51898;49.864;8.550;2023-12-20T02:25:18;3.70;;;2.57;;
10088;SDS011;51898;49.864;8.550;2023-12-20T02:28:20;3.40;;;2.80;;
10088;SDS011;51898;49.864;8.550;2023-12-20T02:31:23;3.20;;;2.23;;
10088;SDS011;51898;49.864;8.550;2023-12-20T02:34:25;3.60;;;2.80;;
10088;SDS011;51898;49.864;8.550;2023-12-20T02:37:28;3.40;;;3.00;;
10088;SDS011;51898;49.864;8.550;2023-12-20T02:40:29;3.80;;;3.30;;
10088;SDS011;51898;49.864;8.550;2023-12-20T02:43:31;5.00;;;3.00;;
10088;SDS011;51898;49.864;8.550;2023-12-20T02:46:33;3.90;;;3.10;;
10088;SDS011;51898;49.864;8.550;2023-12-20T02:49:34;5.40;;;2.93;;
10088;SDS011;51898;49.864;8.550;2023-12-20T02:52:36;3.53;;;2.87;;
10088;SDS011;51898;49.864;8.550;2023-12-20T02:55:38;4.40;;;3.90;;
10088;SDS011;51898;49.864;8.550;2023-12-20T02:58:39;4.23;;;2.90;;
10088;SDS011;51898;49.864;8.550;2023-12-20T03:01:42;4.57;;;3.30;;
10088;SDS011;51898;49.864;8.550;2023-12-20T03:04:45;3.83;;;3.40;;
10088;SDS011;51898;49.864;8.550;2023-12-20T03:07:47;3.10;;;2.60;;
10088;SDS011;51898;49.864;8.550;2023-12-20T03:10:49;3.80;;;2.80;;
10088;SDS011;51898;49.864;8.550;2023-12-20T03:13:51;3.70;;;3.10;;
10088;SDS011;51898;49.864;8.550;2023-12-20T03:16:53;4.37;;;3.03;;
10088;SDS011;51898;49.864;8.550;2023-12-20T03:19:54;3.83;;;2.93;;
10088;SDS011;51898;49.864;8.550;2023-12-20T03:22:56;4.07;;;3.23;;
10088;SDS011;51898;49.864;8.550;2023-12-20T03:25:59;4.73;;;3.23;;
10088;SDS011;51898;49.864;8.550;2023-12-20T03:29:00;3.80;;;3.10;;
10088;SDS011;51898;49.864;8.550;2023-12-20T03:32:02;3.83;;;3.07;;
10088;SDS011;51898;49.864;8.550;2023-12-20T03:35:04;3.10;;;2.80;;
10088;SDS011;51898;49.864;8.550;2023-12-20T03:38:06;3.10;;;2.80;;
10088;SDS011;51898;49.864;8.550;2023-12-20T03:41:08;2.63;;;2.40;;
10088;SDS011;51898;49.864;8.550;2023-12-20T03:44:10;3.30;;;2.80;;
10088;SDS011;51898;49.864;8.550;2023-12-20T03:47:11;2.53;;;2.33;;
10088;SDS011;51898;49.864;8.550;2023-12-20T03:50:13;2.13;;;1.93;;
10088;SDS011;51898;49.864;8.550;2023-12-20T03:53:15;3.00;;;2.70;;
10088;SDS011;51898;49.864;8.550;2023-12-20T03:56:16;2.53;;;2.30;;
10088;SDS011;51898;49.864;8.550;2023-12-20T03:59:18;3.17;;;2.60;;
10088;SDS011;51898;49.864;8.550;2023-12-20T04:02:20;3.60;;;2.60;;
10088;SDS011;51898;49.864;8.550;2023-12-20T04:05:22;3.40;;;2.30;;
10088;SDS011;51898;49.864;8.550;2023-12-20T04:08:23;3.17;;;2.87;;
10088;SDS011;51898;49.864;8.550;2023-12-20T04:11:25;3.10;;;2.60;;
10088;SDS011;51898;49.864;8.550;2023-12-20T04:14:27;2.43;;;2.23;;
10088;SDS011;51898;49.864;8.550;2023-12-20T04:17:28;3.13;;;2.60;;
10088;SDS011;51898;49.864;8.550;2023-12-20T04:20:30;2.70;;;2.50;;
10088;SDS011;51898;49.864;8.550;2023-12-20T04:23:32;2.67;;;2.47;;
10088;SDS011;51898;49.864;8.550;2023-12-20T04:26:33;2.93;;;2.27;;
10088;SDS011;51898;49.864;8.550;2023-12-20T04:29:35;2.77;;;2.40;;
10088;SDS011;51898;49.864;8.550;2023-12-20T04:32:37;2.80;;;2.30;;
10088;SDS011;51898;49.864;8.550;2023-12-20T04:35:38;2.93;;;2.70;;
10088;SDS011;51898;49.864;8.550;2023-12-20T04:38:42;2.67;;;2.47;;
10088;SDS011;51898;49.864;8.550;2023-12-20T04:41:43;2.83;;;2.60;;
10088;SDS011;51898;49.864;8.550;2023-12-20T04:44:45;2.77;;;2.37;;
10088;SDS011;51898;49.864;8.550;2023-12-20T04:47:47;2.53;;;2.33;;
10088;SDS011;51898;49.864;8.550;2023-12-20T04:50:49;3.27;;;2.80;;
10088;SDS011;51898;49.864;8.550;2023-12-20T04:53:50;3.00;;;2.80;;
10088;SDS011;51898;49.864;8.550;2023-12-20T04:56:52;2.60;;;2.30;;
10088;SDS011;51898;49.864;8.550;2023-12-20T04:59:54;2.87;;;2.60;;
10088;SDS011;51898;49.864;8.550;2023-12-20T05:02:56;3.57;;;2.50;;
10088;SDS011;51898;49.864;8.550;2023-12-20T05:05:58;3.40;;;2.47;;
10088;SDS011;51898;49.864;8.550;2023-12-20T05:08:59;3.17;;;2.70;;
10088;SDS011;51898;49.864;8.550;2023-12-20T05:12:01;4.57;;;2.80;;
10088;SDS011;51898;49.864;8.550;2023-12-20T05:15:03;3.20;;;2.70;;
10088;SDS011;51898;49.864;8.550;2023-12-20T05:18:06;3.00;;;2.70;;
10088;SDS011;51898;49.864;8.550;2023-12-20T05:21:08;4.07;;;3.23;;
10088;SDS011;51898;49.864;8.550;2023-12-20T05:24:10;3.30;;;3.00;;
10088;SDS011;51898;49.864;8.550;2023-12-20T05:27:12;4.80;;;2.90;;
10088;SDS011;51898;49.864;8.550;2023-12-20T05:30:13;3.63;;;3.30;;
10088;SDS011;51898;49.864;8.550;2023-12-20T05:33:15;3.67;;;3.20;;
10088;SDS011;51898;49.864;8.550;2023-12-20T05:36:17;3.03;;;2.73;;
10088;SDS011;51898;49.864;8.550;2023-12-20T05:39:19;2.30;;;2.10;;
10088;SDS011;51898;49.864;8.550;2023-12-20T05:42:21;2.80;;;2.17;;
10088;SDS011;51898;49.864;8.550;2023-12-20T05:45:22;3.83;;;2.37;;
10088;SDS011;51898;49.864;8.550;2023-12-20T05:48:24;2.57;;;2.03;;
10088;SDS011;51898;49.864;8.550;2023-12-20T05:51:26;4.90;;;1.70;;
10088;SDS011;51898;49.864;8.550;2023-12-20T05:54:27;2.83;;;2.60;;
10088;SDS011;51898;49.864;8.550;2023-12-20T05:57:29;4.33;;;2.07;;
10088;SDS011;51898;49.864;8.550;2023-12-20T06:00:31;2.60;;;2.20;;
10088;SDS011;51898;49.864;8.550;2023-12-20T06:03:33;5.23;;;1.90;;
10088;SDS011;51898;49.864;8.550;2023-12-20T06:06:40;3.77;;;1.83;;
10088;SDS011;51898;49.864;8.550;2023-12-20T06:09:43;13.27;;;2.63;;
10088;SDS011;51898;49.864;8.550;2023-12-20T06:12:44;3.83;;;2.07;;
10088;SDS011;51898;49.864;8.550;2023-12-20T06:15:48;4.37;;;2.03;;
10088;SDS011;51898;49.864;8.550;2023-12-20T06:18:50;3.67;;;2.23;;
10088;SDS011;51898;49.864;8.550;2023-12-20T06:21:52;2.33;;;1.90;;
10088;SDS011;51898;49.864;8.550;2023-12-20T06:24:54;2.30;;;2.10;;
10088;SDS011;51898;49.864;8.550;2023-12-20T06:27:56;9.50;;;2.50;;
10088;SDS011;51898;49.864;8.550;2023-12-20T06:30:57;3.07;;;2.40;;
10088;SDS011;51898;49.864;8.550;2023-12-20T06:34:00;2.90;;;2.20;;
10088;SDS011;51898;49.864;8.550;2023-12-20T06:37:02;2.67;;;2.27;;
10088;SDS011;51898;49.864;8.550;2023-12-20T06:40:04;6.17;;;2.57;;
10088;SDS011;51898;49.864;8.550;2023-12-20T06:43:12;4.23;;;2.33;;
10088;SDS011;51898;49.864;8.550;2023-12-20T06:46:32;4.23;;;2.67;;
10088;SDS011;51898;49.864;8.550;2023-12-20T06:49:34;3.60;;;2.73;;
10088;SDS011;51898;49.864;8.550;2023-12-20T06:52:35;2.27;;;2.10;;
10088;SDS011;51898;49.864;8.550;2023-12-20T06:55:38;4.37;;;2.43;;
10088;SDS011;51898;49.864;8.550;2023-12-20T06:58:40;3.90;;;2.60;;
10088;SDS011;51898;49.864;8.550;2023-12-20T07:01:41;4.37;;;3.20;;
10088;SDS011;51898;49.864;8.550;2023-12-20T07:04:43;4.10;;;3.33;;
10088;SDS011;51898;49.864;8.550;2023-12-20T07:07:48;6.27;;;3.00;;
10088;SDS011;51898;49.864;8.550;2023-12-20T07:10:50;4.40;;;3.00;;
10088;SDS011;51898;49.864;8.550;2023-12-20T07:13:52;3.20;;;2.90;;
10088;SDS011;51898;49.864;8.550;2023-12-20T07:16:55;3.20;;;2.37;;
10088;SDS011;51898;49.864;8.550;2023-12-20T07:19:57;3.27;;;2.33;;
10088;SDS011;51898;49.864;8.550;2023-12-20T07:22:59;8.43;;;2.60;;
10088;SDS011;51898;49.864;8.550;2023-12-20T07:26:01;4.13;;;3.30;;
10088;SDS011;51898;49.864;8.550;2023-12-20T07:29:02;9.10;;;2.77;;
10088;SDS011;51898;49.864;8.550;2023-12-20T07:32:05;7.90;;;3.00;;
10088;SDS011;51898;49.864;8.550;2023-12-20T07:35:07;4.90;;;2.80;;
10088;SDS011;51898;49.864;8.550;2023-12-20T07:38:09;9.40;;;2.90;;
10088;SDS011;51898;49.864;8.550;2023-12-20T07:41:11;5.40;;;2.67;;
10088;SDS011;51898;49.864;8.550;2023-12-20T07:44:12;6.40;;;2.70;;
10088;SDS011;51898;49.864;8.550;2023-12-20T07:47:14;10.60;;;2.73;;
10088;SDS011;51898;49.864;8.550;2023-12-20T07:50:19;4.10;;;3.07;;
10088;SDS011;51898;49.864;8.550;2023-12-20T07:53:21;5.03;;;2.93;;
10088;SDS011;51898;49.864;8.550;2023-12-20T07:56:22;4.47;;;2.67;;
10088;SDS011;51898;49.864;8.550;2023-12-20T07:59:24;7.43;;;3.00;;
10088;SDS011;51898;49.864;8.550;2023-12-20T08:02:33;5.43;;;2.50;;
10088;SDS011;51898;49.864;8.550;2023-12-20T08:05:35;7.93;;;2.40;;
10088;SDS011;51898;49.864;8.550;2023-12-20T08:08:37;4.10;;;2.20;;
10088;SDS011;51898;49.864;8.550;2023-12-20T08:11:39;4.93;;;2.50;;
10088;SDS011;51898;49.864;8.550;2023-12-20T08:14:40;7.70;;;2.70;;
10088;SDS011;51898;49.864;8.550;2023-12-20T08:17:42;8.17;;;2.70;;
10088;SDS011;51898;49.864;8.550;2023-12-20T08:20:44;4.80;;;2.40;;
10088;SDS011;51898;49.864;8.550;2023-12-20T08:23:46;7.03;;;2.30;;
10088;SDS011;51898;49.864;8.550;2023-12-20T08:26:48;8.50;;;2.10;;
10088;SDS011;51898;49.864;8.550;2023-12-20T08:29:50;7.60;;;2.20;;
10088;SDS011;51898;49.864;8.550;2023-12-20T08:32:52;4.13;;;2.03;;
10088;SDS011;51898;49.864;8.550;2023-12-20T08:35:54;4.97;;;2.73;;
10088;SDS011;51898;49.864;8.550;2023-12-20T08:38:56;3.27;;;2.10;;
10088;SDS011;51898;49.864;8.550;2023-12-20T08:41:57;4.47;;;2.53;;
10088;SDS011;51898;49.864;8.550;2023-12-20T08:44:59;3.97;;;2.47;;
10088;SDS011;51898;49.864;8.550;2023-12-20T08:48:01;4.90;;;1.87;;
10088;SDS011;51898;49.864;8.550;2023-12-20T08:51:06;3.70;;;2.13;;
10088;SDS011;51898;49.864;8.550;2023-12-20T08:54:10;5.63;;;2.40;;
10088;SDS011;51898;49.864;8.550;2023-12-20T08:57:11;6.53;;;2.33;;
10088;SDS011;51898;49.864;8.550;2023-12-20T09:00:13;2.80;;;1.97;;
10088;SDS011;51898;49.864;8.550;2023-12-20T09:03:16;4.83;;;3.00;;
10088;SDS011;51898;49.864;8.550;2023-12-20T09:06:17;5.67;;;2.50;;
10088;SDS011;51898;49.864;8.550;2023-12-20T09:09:19;6.27;;;2.00;;
10088;SDS011;51898;49.864;8.550;2023-12-20T09:12:21;3.90;;;2.37;;
10088;SDS011;51898;49.864;8.550;2023-12-20T09:15:23;6.20;;;2.70;;
10088;SDS011;51898;49.864;8.550;2023-12-20T09:18:26;3.10;;;2.23;;
10088;SDS011;51898;49.864;8.550;2023-12-20T09:21:28;4.37;;;2.07;;
10088;SDS011;51898;49.864;8.550;2023-12-20T09:24:30;8.13;;;2.30;;
10088;SDS011;51898;49.864;8.550;2023-12-20T09:27:32;2.80;;;1.70;;
10088;SDS011;51898;49.864;8.550;2023-12-20T09:30:34;3.27;;;2.20;;
10088;SDS011;51898;49.864;8.550;2023-12-20T09:33:39;5.20;;;2.90;;
10088;SDS011;51898;49.864;8.550;2023-12-20T09:36:40;4.67;;;2.10;;
10088;SDS011;51898;49.864;8.550;2023-12-20T09:40:07;6.20;;;2.40;;
10088;SDS011;51898;49.864;8.550;2023-12-20T09:43:35;6.93;;;2.33;;
10088;SDS011;51898;49.864;8.550;2023-12-20T09:46:58;5.30;;;2.53;;
10088;SDS011;51898;49.864;8.550;2023-12-20T09:50:23;3.17;;;2.53;;
10088;SDS011;51898;49.864;8.550;2023-12-20T09:53:45;3.97;;;2.33;;
10088;SDS011;51898;49.864;8.550;2023-12-20T09:57:09;8.90;;;2.90;;
10088;SDS011;51898;49.864;8.550;2023-12-20T10:00:31;5.03;;;2.37;;
10088;SDS011;51898;49.864;8.550;2023-12-20T10:03:54;2.73;;;2.47;;
10088;SDS011;51898;49.864;8.550;2023-12-20T10:07:16;7.20;;;2.40;;
10088;SDS011;51898;49.864;8.550;2023-12-20T10:10:38;3.60;;;2.30;;
10088;SDS011;51898;49.864;8.550;2023-12-20T10:13:48;7.50;;;2.73;;
10088;SDS011;51898;49.864;8.550;2023-12-20T10:16:50;3.20;;;2.50;;
10088;SDS011;51898;49.864;8.550;2023-12-20T10:19:52;5.70;;;2.70;;
10088;SDS011;51898;49.864;8.550;2023-12-20T10:22:55;4.87;;;2.50;;
10088;SDS011;51898;49.864;8.550;2023-12-20T10:26:00;7.07;;;2.83;;
10088;SDS011;51898;49.864;8.550;2023-12-20T10:29:02;5.23;;;2.40;;
10088;SDS011;51898;49.864;8.550;2023-12-20T10:32:21;14.03;;;2.80;;
10088;SDS011;51898;49.864;8.550;2023-12-20T10:35:25;4.40;;;2.33;;
10088;SDS011;51898;49.864;8.550;2023-12-20T10:38:27;7.80;;;2.50;;
10088;SDS011;51898;49.864;8.550;2023-12-20T10:41:31;6.10;;;2.17;;
10088;SDS011;51898;49.864;8.550;2023-12-20T10:44:34;7.13;;;2.20;;
10088;SDS011;51898;49.864;8.550;2023-12-20T10:47:35;8.37;;;2.20;;
10088;SDS011;51898;49.864;8.550;2023-12-20T10:50:41;3.27;;;2.80;;
10088;SDS011;51898;49.864;8.550;2023-12-20T10:53:43;6.20;;;2.13;;
10088;SDS011;51898;49.864;8.550;2023-12-20T10:56:48;8.33;;;2.70;;
10088;SDS011;51898;49.864;8.550;2023-12-20T10:59:53;10.93;;;2.13;;
10088;SDS011;51898;49.864;8.550;2023-12-20T11:02:55;8.73;;;2.37;;
10088;SDS011;51898;49.864;8.550;2023-12-20T11:09:24;3.70;;;2.70;;
10088;SDS011;51898;49.864;8.550;2023-12-20T11:12:35;5.23;;;1.87;;
10088;SDS011;51898;49.864;8.550;2023-12-20T11:15:42;9.20;;;3.30;;
10088;SDS011;51898;49.864;8.550;2023-12-20T11:18:44;5.70;;;2.70;;
10088;SDS011;51898;49.864;8.550;2023-12-20T11:21:46;4.57;;;2.20;;
10088;SDS011;51898;49.864;8.550;2023-12-20T11:24:48;7.60;;;2.73;;
10088;SDS011;51898;49.864;8.550;2023-12-20T11:28:09;7.00;;;2.70;;
10088;SDS011;51898;49.864;8.550;2023-12-20T11:31:13;6.57;;;2.83;;
10088;SDS011;51898;49.864;8.550;2023-12-20T11:34:16;6.93;;;2.97;;
10088;SDS011;51898;49.864;8.550;2023-12-20T11:37:19;6.97;;;2.87;;
10088;SDS011;51898;49.864;8.550;2023-12-20T11:40:22;6.00;;;2.87;;
10088;SDS011;51898;49.864;8.550;2023-12-20T11:43:29;14.27;;;3.63;;
10088;SDS011;51898;49.864;8.550;2023-12-20T11:46:33;9.67;;;2.80;;
10088;SDS011;51898;49.864;8.550;2023-12-20T11:49:35;6.17;;;2.57;;
10088;SDS011;51898;49.864;8.550;2023-12-20T11:52:37;5.80;;;2.53;;
10088;SDS011;51898;49.864;8.550;2023-12-20T11:55:39;7.23;;;2.50;;
10088;SDS011;51898;49.864;8.550;2023-12-20T11:58:41;4.80;;;2.13;;
10088;SDS011;51898;49.864;8.550;2023-12-20T12:01:47;4.07;;;2.00;;
10088;SDS011;51898;49.864;8.550;2023-12-20T12:04:51;6.10;;;2.40;;
10088;SDS011;51898;49.864;8.550;2023-12-20T12:07:53;4.23;;;1.90;;
10088;SDS011;51898;49.864;8.550;2023-12-20T12:10:55;6.43;;;2.00;;
10088;SDS011;51898;49.864;8.550;2023-12-20T12:13:57;4.80;;;2.10;;
10088;SDS011;51898;49.864;8.550;2023-12-20T12:16:58;6.70;;;2.00;;
10088;SDS011;51898;49.864;8.550;2023-12-20T12:20:03;6.17;;;2.20;;
10088;SDS011;51898;49.864;8.550;2023-12-20T12:23:07;7.37;;;2.60;;
10088;SDS011;51898;49.864;8.550;2023-12-20T12:26:09;6.43;;;3.93;;
10088;SDS011;51898;49.864;8.550;2023-12-20T12:29:11;7.80;;;2.43;;
10088;SDS011;51898;49.864;8.550;2023-12-20T12:32:13;5.60;;;2.70;;
10088;SDS011;51898;49.864;8.550;2023-12-20T12:35:17;3.67;;;2.40;;
10088;SDS011;51898;49.864;8.550;2023-12-20T12:38:20;4.53;;;2.73;;
10088;SDS011;51898;49.864;8.550;2023-12-20T12:41:22;7.73;;;3.20;;
10088;SDS011;51898;49.864;8.550;2023-12-20T12:44:24;8.40;;;2.17;;
10088;SDS011;51898;49.864;8.550;2023-12-20T12:47:26;4.33;;;2.53;;
10088;SDS011;51898;49.864;8.550;2023-12-20T12:50:28;8.47;;;2.40;;
10088;SDS011;51898;49.864;8.550;2023-12-20T12:53:30;7.13;;;2.70;;
10088;SDS011;51898;49.864;8.550;2023-12-20T12:56:32;5.57;;;3.30;;
10088;SDS011;51898;49.864;8.550;2023-12-20T12:59:34;3.73;;;3.03;;
10088;SDS011;51898;49.864;8.550;2023-12-20T13:02:38;6.13;;;2.80;;
10088;SDS011;51898;49.864;8.550;2023-12-20T13:05:43;4.57;;;2.80;;
10088;SDS011;51898;49.864;8.550;2023-12-20T13:08:47;13.93;;;3.73;;
10088;SDS011;51898;49.864;8.550;2023-12-20T13:11:49;5.90;;;2.20;;
10088;SDS011;51898;49.864;8.550;2023-12-20T13:14:54;2.77;;;2.00;;
10088;SDS011;51898;49.864;8.550;2023-12-20T13:17:56;5.90;;;2.80;;
10088;SDS011;51898;49.864;8.550;2023-12-20T13:20:58;7.07;;;2.33;;
10088;SDS011;51898;49.864;8.550;2023-12-20T13:23:59;5.00;;;2.40;;
10088;SDS011;51898;49.864;8.550;2023-12-20T13:27:01;10.30;;;2.97;;
10088;SDS011;51898;49.864;8.550;2023-12-20T13:30:03;7.93;;;2.80;;
10088;SDS011;51898;49.864;8.550;2023-12-20T13:33:06;8.10;;;2.97;;
10088;SDS011;51898;49.864;8.550;2023-12-20T13:36:07;4.30;;;2.60;;
10088;SDS011;51898;49.864;8.550;2023-12-20T13:39:10;5.70;;;2.57;;
10088;SDS011;51898;49.864;8.550;2023-12-20T13:42:11;9.20;;;2.67;;
10088;SDS011;51898;49.864;8.550;2023-12-20T13:45:13;4.57;;;2.00;;
10088;SDS011;51898;49.864;8.550;2023-12-20T13:48:15;8.27;;;2.40;;
10088;SDS011;51898;49.864;8.550;2023-12-20T13:51:17;3.73;;;2.20;;
10088;SDS011;51898;49.864;8.550;2023-12-20T13:54:19;6.27;;;2.33;;
10088;SDS011;51898;49.864;8.550;2023-12-20T13:57:22;7.00;;;2.20;;
10088;SDS011;51898;49.864;8.550;2023-12-20T14:00:44;3.47;;;1.70;;
10088;SDS011;51898;49.864;8.550;2023-12-20T14:03:46;5.63;;;1.90;;
10088;SDS011;51898;49.864;8.550;2023-12-20T14:06:48;3.90;;;1.70;;
10088;SDS011;51898;49.864;8.550;2023-12-20T14:09:49;8.13;;;2.23;;
10088;SDS011;51898;49.864;8.550;2023-12-20T14:12:51;5.27;;;2.30;;
10088;SDS011;51898;49.864;8.550;2023-12-20T14:15:53;7.20;;;2.40;;
10088;SDS011;51898;49.864;8.550;2023-12-20T14:18:55;3.90;;;1.77;;
10088;SDS011;51898;49.864;8.550;2023-12-20T14:21:59;6.53;;;2.00;;
10088;SDS011;51898;49.864;8.550;2023-12-20T14:25:03;4.57;;;1.80;;
10088;SDS011;51898;49.864;8.550;2023-12-20T14:28:05;2.33;;;1.80;;
10088;SDS011;51898;49.864;8.550;2023-12-20T14:31:07;6.53;;;1.60;;
10088;SDS011;51898;49.864;8.550;2023-12-20T14:34:09;4.70;;;2.17;;
10088;SDS011;51898;49.864;8.550;2023-12-20T14:37:11;5.07;;;1.93;;
10088;SDS011;51898;49.864;8.550;2023-12-20T14:40:13;5.60;;;2.30;;
10088;SDS011;51898;49.864;8.550;2023-12-20T14:43:18;2.70;;;1.80;;
10088;SDS011;51898;49.864;8.550;2023-12-20T14:46:20;5.80;;;1.87;;
10088;SDS011;51898;49.864;8.550;2023-12-20T14:49:22;2.73;;;1.43;;
10088;SDS011;51898;49.864;8.550;2023-12-20T14:52:24;6.20;;;1.90;;
10088;SDS011;51898;49.864;8.550;2023-12-20T14:55:25;7.20;;;2.20;;
10088;SDS011;51898;49.864;8.550;2023-12-20T14:58:29;3.63;;;1.50;;
10088;SDS011;51898;49.864;8.550;2023-12-20T15:01:32;6.10;;;1.87;;
10088;SDS011;51898;49.864;8.550;2023-12-20T15:04:34;7.03;;;1.73;;
10088;SDS011;51898;49.864;8.550;2023-12-20T15:07:36;4.23;;;1.67;;
10088;SDS011;51898;49.864;8.550;2023-12-20T15:10:39;3.27;;;1.83;;
10088;SDS011;51898;49.864;8.550;2023-12-20T15:13:41;4.67;;;2.13;;
10088;SDS011;51898;49.864;8.550;2023-12-20T15:16:43;5.30;;;1.97;;
10088;SDS011;51898;49.864;8.550;2023-12-20T15:19:45;3.67;;;1.53;;
10088;SDS011;51898;49.864;8.550;2023-12-20T15:22:47;4.77;;;2.37;;
10088;SDS011;51898;49.864;8.550;2023-12-20T15:25:48;6.87;;;1.73;;
10088;SDS011;51898;49.864;8.550;2023-12-20T15:28:50;5.47;;;1.70;;
10088;SDS011;51898;49.864;8.550;2023-12-20T15:31:52;4.40;;;1.93;;
10088;SDS011;51898;49.864;8.550;2023-12-20T15:34:54;4.77;;;2.10;;
10088;SDS011;51898;49.864;8.550;2023-12-20T15:37:56;9.03;;;2.30;;
10088;SDS011;51898;49.864;8.550;2023-12-20T15:40:59;2.13;;;1.60;;
10088;SDS011;51898;49.864;8.550;2023-12-20T15:44:03;5.80;;;2.57;;
10088;SDS011;51898;49.864;8.550;2023-12-20T15:47:04;5.13;;;1.87;;
10088;SDS011;51898;49.864;8.550;2023-12-20T15:50:06;8.03;;;2.40;;
10088;SDS011;51898;49.864;8.550;2023-12-20T15:53:09;7.07;;;1.97;;
10088;SDS011;51898;49.864;8.550;2023-12-20T15:56:11;3.97;;;1.80;;
10088;SDS011;51898;49.864;8.550;2023-12-20T15:59:13;4.63;;;2.00;;
10088;SDS011;51898;49.864;8.550;2023-12-20T16:02:15;6.70;;;2.17;;
10088;SDS011;51898;49.864;8.550;2023-12-20T16:05:17;6.40;;;2.30;;
10088;SDS011;51898;49.864;8.550;2023-12-20T16:08:20;13.13;;;2.20;;
10088;SDS011;51898;49.864;8.550;2023-12-20T16:11:22;8.43;;;2.30;;
10088;SDS011;51898;49.864;8.550;2023-12-20T16:14:24;3.57;;;1.80;;
10088;SDS011;51898;49.864;8.550;2023-12-20T16:17:29;7.40;;;2.60;;
10088;SDS011;51898;49.864;8.550;2023-12-20T16:20:31;7.67;;;2.67;;
10088;SDS011;51898;49.864;8.550;2023-12-20T16:23:33;19.17;;;2.50;;
10088;SDS011;51898;49.864;8.550;2023-12-20T16:26:34;9.57;;;2.90;;
10088;SDS011;51898;49.864;8.550;2023-12-20T16:29:37;8.63;;;3.30;;
10088;SDS011;51898;49.864;8.550;2023-12-20T16:32:39;10.63;;;3.20;;
10088;SDS011;51898;49.864;8.550;2023-12-20T16:35:51;10.83;;;3.60;;
10088;SDS011;51898;49.864;8.550;2023-12-20T16:38:52;12.40;;;3.00;;
10088;SDS011;51898;49.864;8.550;2023-12-20T16:41:54;10.97;;;4.07;;
10088;SDS011;51898;49.864;8.550;2023-12-20T16:44:56;6.97;;;3.23;;
10088;SDS011;51898;49.864;8.550;2023-12-20T16:47:57;7.43;;;2.87;;
10088;SDS011;51898;49.864;8.550;2023-12-20T16:50:59;10.30;;;3.40;;
10088;SDS011;51898;49.864;8.550;2023-12-20T16:54:01;12.53;;;3.33;;
10088;SDS011;51898;49.864;8.550;2023-12-20T16:57:03;12.43;;;4.07;;
10088;SDS011;51898;49.864;8.550;2023-12-20T17:00:05;4.20;;;3.07;;
10088;SDS011;51898;49.864;8.550;2023-12-20T17:03:08;8.00;;;3.60;;
10088;SDS011;51898;49.864;8.550;2023-12-20T17:06:10;8.67;;;3.33;;
10088;SDS011;51898;49.864;8.550;2023-12-20T17:09:11;12.57;;;4.17;;
10088;SDS011;51898;49.864;8.550;2023-12-20T17:12:13;7.57;;;3.23;;
10088;SDS011;51898;49.864;8.550;2023-12-20T17:15:15;6.33;;;3.60;;
10088;SDS011;51898;49.864;8.550;2023-12-20T17:18:17;8.60;;;5.07;;
10088;SDS011;51898;49.864;8.550;2023-12-20T17:21:19;10.63;;;5.13;;
10088;SDS011;51898;49.864;8.550;2023-12-20T17:24:21;7.10;;;3.43;;
10088;SDS011;51898;49.864;8.550;2023-12-20T17:27:22;6.17;;;3.77;;
10088;SDS011;51898;49.864;8.550;2023-12-20T17:30:24;6.60;;;3.20;;
10088;SDS011;51898;49.864;8.550;2023-12-20T17:33:26;7.73;;;3.60;;
10088;SDS011;51898;49.864;8.550;2023-12-20T17:36:28;4.63;;;3.37;;
10088;SDS011;51898;49.864;8.550;2023-12-20T17:39:29;9.10;;;3.70;;
10088;SDS011;51898;49.864;8.550;2023-12-20T17:42:31;5.80;;;3.40;;
10088;SDS011;51898;49.864;8.550;2023-12-20T17:45:33;7.20;;;3.27;;
10088;SDS011;51898;49.864;8.550;2023-12-20T17:48:34;12.67;;;3.30;;
10088;SDS011;51898;49.864;8.550;2023-12-20T17:51:36;4.20;;;3.20;;
10088;SDS011;51898;49.864;8.550;2023-12-20T17:54:38;10.97;;;5.10;;
10088;SDS011;51898;49.864;8.550;2023-12-20T17:57:40;8.97;;;3.93;;
10088;SDS011;51898;49.864;8.550;2023-12-20T18:00:42;8.17;;;4.17;;
10088;SDS011;51898;49.864;8.550;2023-12-20T18:03:44;10.43;;;3.70;;
10088;SDS011;51898;49.864;8.550;2023-12-20T18:06:45;7.97;;;3.80;;
10088;SDS011;51898;49.864;8.550;2023-12-20T18:09:47;8.07;;;3.70;;
10088;SDS011;51898;49.864;8.550;2023-12-20T18:12:49;9.80;;;3.40;;
10088;SDS011;51898;49.864;8.550;2023-12-20T18:15:51;6.67;;;3.17;;
10088;SDS011;51898;49.864;8.550;2023-12-20T18:18:52;8.60;;;4.60;;
10088;SDS011;51898;49.864;8.550;2023-12-20T18:21:54;10.43;;;4.37;;
10088;SDS011;51898;49.864;8.550;2023-12-20T18:24:58;7.97;;;3.50;;
10088;SDS011;51898;49.864;8.550;2023-12-20T18:27:59;5.87;;;3.70;;